createdAt,value
2018-10-16T00:01:01.861Z,99.90
2018-10-16T00:03:34.400Z,99.90
2018-10-16T00:06:04.726Z,99.90
2018-10-16T00:08:37.697Z,99.90
2018-10-16T00:13:52.567Z,99.90
2018-10-16T00:16:24.244Z,99.90
2018-10-16T00:18:55.944Z,99.90
2018-10-16T00:21:30.430Z,99.90
2018-10-16T00:24:02.237Z,99.90
2018-10-16T00:26:33.058Z,99.90
2018-10-16T00:29:06.121Z,99.90
2018-10-16T00:31:39.291Z,99.90
2018-10-16T00:34:11.246Z,99.90
2018-10-16T00:36:43.777Z,99.90
2018-10-16T00:39:16.247Z,99.90
2018-10-16T00:41:51.481Z,99.90
2018-10-16T00:44:21.332Z,99.90
2018-10-16T00:49:33.303Z,99.90
2018-10-16T00:52:02.679Z,99.90
2018-10-16T00:54:32.697Z,99.90
2018-10-16T00:57:02.694Z,99.90
2018-10-16T00:59:33.274Z,99.90
2018-10-16T01:02:03.223Z,99.90
2018-10-16T01:04:39.285Z,99.90
2018-10-16T01:07:15.092Z,99.90
2018-10-16T01:09:47.512Z,99.90
2018-10-16T01:12:17.881Z,99.90
2018-10-16T01:14:48.560Z,99.90
2018-10-16T01:17:18.179Z,99.90
2018-10-16T01:22:27.585Z,99.90
2018-10-16T01:24:57.665Z,99.90
2018-10-16T01:27:28.071Z,99.90
2018-10-16T01:30:05.101Z,99.90
2018-10-16T01:32:36.552Z,99.90
2018-10-16T01:35:08.732Z,99.90
2018-10-16T01:37:39.233Z,99.90
2018-10-16T01:43:27.056Z,99.90
2018-10-16T01:45:56.781Z,99.90
2018-10-16T01:48:27.784Z,99.90
2018-10-16T01:50:58.605Z,99.90
2018-10-16T01:53:28.439Z,99.90
2018-10-16T01:55:58.440Z,99.90
2018-10-16T01:58:29.736Z,99.90
2018-10-16T02:01:02.511Z,99.90
2018-10-16T02:03:33.120Z,99.90
2018-10-16T02:06:03.990Z,99.90
2018-10-16T02:08:34.308Z,99.90
2018-10-16T02:11:04.403Z,99.90
2018-10-16T02:13:34.389Z,99.90
2018-10-16T02:16:04.010Z,99.90
2018-10-16T02:18:35.272Z,99.90
2018-10-16T02:21:06.213Z,99.90
2018-10-16T02:23:36.448Z,99.90
2018-10-16T02:26:07.705Z,99.90
2018-10-16T02:28:38.229Z,99.90
2018-10-16T02:31:11.844Z,99.90
2018-10-16T02:33:44.144Z,99.90
2018-10-16T02:36:14.224Z,99.90
2018-10-16T02:38:49.380Z,99.90
2018-10-16T02:41:19.139Z,99.90
2018-10-16T02:46:35.335Z,99.90
2018-10-16T02:49:05.625Z,99.90
2018-10-16T02:51:34.999Z,99.90
2018-10-16T02:54:05.956Z,99.90
2018-10-16T02:56:36.040Z,99.90
2018-10-16T02:59:07.141Z,99.90
2018-10-16T03:01:40.416Z,99.90
2018-10-16T03:04:10.885Z,99.90
2018-10-16T03:06:42.126Z,99.90
2018-10-16T03:09:14.596Z,99.90
2018-10-16T03:11:45.115Z,99.90
2018-10-16T03:14:15.844Z,99.90
2018-10-16T03:16:46.449Z,99.90
2018-10-16T03:33:16.849Z,99.90
2018-10-16T03:35:52.736Z,99.90
2018-10-16T03:38:23.939Z,99.90
2018-10-16T03:40:56.261Z,99.90
2018-10-16T03:43:27.377Z,99.90
2018-10-16T03:45:58.331Z,99.90
2018-10-16T03:48:32.934Z,99.90
2018-10-16T03:51:11.326Z,99.90
2018-10-16T03:59:15.452Z,99.90
2018-10-16T04:01:51.101Z,99.90
2018-10-16T04:04:26.309Z,99.90
2018-10-16T04:06:58.827Z,99.90
2018-10-16T04:09:36.691Z,99.90
2018-10-16T04:12:22.153Z,99.90
2018-10-16T04:21:08.511Z,99.90
2018-10-16T04:23:39.382Z,99.90
2018-10-16T04:26:14.597Z,99.90
2018-10-16T04:28:48.012Z,99.90
2018-10-16T04:31:20.922Z,99.90
2018-10-16T04:33:50.822Z,99.90
2018-10-16T04:36:21.951Z,99.90
2018-10-16T04:38:53.943Z,99.90
2018-10-16T04:41:23.826Z,99.90
2018-10-16T04:43:55.615Z,99.90
2018-10-16T04:47:38.346Z,99.90
2018-10-16T04:54:20.768Z,99.90
2018-10-16T04:56:50.431Z,99.90
2018-10-16T04:59:25.286Z,99.90
2018-10-16T05:01:54.675Z,99.90
2018-10-16T05:04:48.552Z,99.90
2018-10-16T05:07:20.350Z,99.90
2018-10-16T05:24:01.358Z,99.90
2018-10-16T05:26:30.115Z,99.90
2018-10-16T05:29:01.094Z,99.90
2018-10-16T05:31:30.529Z,99.90
2018-10-16T05:33:59.960Z,99.90
2018-10-16T05:36:48.796Z,99.90
2018-10-16T05:42:39.764Z,99.90
2018-10-16T05:45:12.954Z,99.90
2018-10-16T05:53:17.246Z,99.90
2018-10-16T05:55:46.062Z,99.90
2018-10-16T05:58:14.741Z,99.90
2018-10-16T06:00:45.813Z,99.90
2018-10-16T06:03:14.466Z,99.90
2018-10-16T06:05:45.714Z,99.90
2018-10-16T06:08:40.476Z,99.90
2018-10-16T06:45:02.489Z,99.90
2018-10-16T06:47:31.377Z,99.90
2018-10-16T06:50:00.031Z,99.90
2018-10-16T06:52:28.760Z,99.90
2018-10-16T06:54:57.500Z,99.90
2018-10-16T06:57:26.836Z,99.90
2018-10-16T06:59:55.538Z,99.90
2018-10-16T07:02:24.275Z,99.90
2018-10-16T07:04:53.106Z,99.90
2018-10-16T07:07:22.429Z,99.90
2018-10-16T07:09:51.013Z,99.90
2018-10-16T07:12:19.719Z,99.90
2018-10-16T07:14:48.361Z,99.90
2018-10-16T07:17:17.069Z,99.90
2018-10-16T07:19:45.766Z,99.90
2018-10-16T07:22:14.419Z,99.90
2018-10-16T07:24:43.205Z,99.90
2018-10-16T07:27:11.960Z,99.90
2018-10-16T07:29:40.681Z,99.90
2018-10-16T07:32:09.389Z,73.80
2018-10-16T07:34:38.047Z,54.50
2018-10-16T07:37:06.856Z,48.00
2018-10-16T07:39:35.467Z,44.90
2018-10-16T07:42:04.135Z,48.00
2018-10-16T07:44:44.458Z,51.60
2018-10-16T07:47:16.215Z,55.30
2018-10-16T07:49:49.583Z,58.70
2018-10-16T07:52:18.312Z,60.10
2018-10-16T07:54:47.211Z,62.60
2018-10-16T07:57:15.962Z,64.80
2018-10-16T07:59:44.570Z,64.90
2018-10-16T08:02:13.227Z,64.90
2018-10-16T08:04:42.094Z,65.50
2018-10-16T08:07:10.719Z,65.90
2018-10-16T08:09:39.337Z,64.20
2018-10-16T08:12:09.941Z,63.10
2018-10-16T08:14:39.078Z,61.50
2018-10-16T08:17:08.033Z,60.40
2018-10-16T08:19:36.617Z,56.40
2018-10-16T08:22:05.293Z,47.10
2018-10-16T08:24:33.912Z,38.10
2018-10-16T08:27:02.582Z,31.90
2018-10-16T08:29:31.243Z,29.00
2018-10-16T08:32:00.568Z,27.30
2018-10-16T08:34:29.190Z,26.30
2018-10-16T08:36:58.063Z,24.30
2018-10-16T08:39:30.563Z,23.60
2018-10-16T08:44:24.843Z,23.10
2018-10-16T08:47:04.633Z,22.50
2018-10-16T08:49:44.412Z,21.70
2018-10-16T08:52:12.979Z,21.40
2018-10-16T08:54:46.599Z,20.40
2018-10-16T08:57:15.248Z,20.30
2018-10-16T08:59:44.051Z,19.50
2018-10-16T09:02:29.647Z,19.40
2018-10-16T09:05:00.518Z,19.30
2018-10-16T09:07:37.233Z,18.80
2018-10-16T09:10:06.581Z,18.70
2018-10-16T09:12:35.420Z,17.70
2018-10-16T09:15:05.677Z,17.20
2018-10-16T09:17:35.583Z,16.90
2018-10-16T09:20:06.223Z,16.70
2018-10-16T09:22:35.145Z,16.70
2018-10-16T09:25:04.110Z,16.90
2018-10-16T09:27:33.156Z,16.50
2018-10-16T09:30:02.091Z,16.50
2018-10-16T09:32:31.298Z,15.70
2018-10-16T09:35:01.074Z,15.90
2018-10-16T09:37:31.038Z,15.30
2018-10-16T09:39:59.908Z,15.80
2018-10-16T09:42:29.396Z,15.90
2018-10-16T09:44:59.279Z,15.60
2018-10-16T09:47:28.211Z,16.30
2018-10-16T09:49:57.108Z,15.80
2018-10-16T09:52:26.976Z,16.30
2018-10-16T09:54:55.886Z,16.40
2018-10-16T09:57:25.693Z,16.50
2018-10-16T09:59:54.492Z,15.60
2018-10-16T10:02:23.367Z,15.70
2018-10-16T10:04:52.840Z,15.60
2018-10-16T10:07:21.778Z,15.30
2018-10-16T10:09:51.547Z,15.20
2018-10-16T10:12:20.347Z,14.70
2018-10-16T10:14:49.854Z,13.80
2018-10-16T10:17:18.681Z,14.90
2018-10-16T10:22:47.979Z,15.50
2018-10-16T10:25:19.395Z,14.80
2018-10-16T10:27:49.671Z,14.00
2018-10-16T10:30:18.460Z,13.80
2018-10-16T10:32:47.796Z,13.50
2018-10-16T10:35:16.742Z,13.60
2018-10-16T10:37:46.910Z,13.90
2018-10-16T10:40:19.325Z,13.60
2018-10-16T10:42:51.973Z,13.90
2018-10-16T10:45:23.396Z,14.40
2018-10-16T10:47:52.508Z,14.30
2018-10-16T10:50:23.450Z,13.50
2018-10-16T10:52:55.897Z,13.40
2018-10-16T10:55:30.128Z,13.00
2018-10-16T10:58:02.112Z,12.90
2018-10-16T11:00:31.342Z,12.20
2018-10-16T11:03:01.455Z,12.10
2018-10-16T11:05:30.287Z,12.80
2018-10-16T11:07:58.990Z,12.40
2018-10-16T11:10:33.613Z,12.50
2018-10-16T11:13:02.389Z,13.10
2018-10-16T11:15:31.114Z,14.20
2018-10-16T11:17:59.942Z,12.80
2018-10-16T11:20:28.845Z,12.80
2018-10-16T11:22:58.398Z,13.20
2018-10-16T11:25:27.190Z,13.60
2018-10-16T11:27:56.774Z,12.70
2018-10-16T11:30:25.588Z,13.30
2018-10-16T11:32:54.484Z,13.40
2018-10-16T11:35:23.738Z,14.50
2018-10-16T11:37:52.569Z,14.10
2018-10-16T11:40:21.311Z,14.20
2018-10-16T11:42:50.265Z,14.30
2018-10-16T11:45:20.902Z,14.90
2018-10-16T11:47:52.126Z,14.60
2018-10-16T11:50:21.189Z,14.60
2018-10-16T11:52:50.880Z,14.60
2018-10-16T11:55:20.873Z,14.80
2018-10-16T11:57:49.885Z,15.90
2018-10-16T12:00:19.056Z,15.20
2018-10-16T12:02:49.663Z,15.40
2018-10-16T12:05:20.785Z,16.20
2018-10-16T12:07:49.848Z,16.10
2018-10-16T12:10:19.717Z,16.20
2018-10-16T12:12:48.962Z,16.60
2018-10-16T12:15:17.647Z,17.40
2018-10-16T12:17:51.570Z,18.00
2018-10-16T12:20:41.403Z,18.70
2018-10-16T12:23:45.295Z,18.90
2018-10-16T12:26:14.057Z,17.60
2018-10-16T12:28:43.118Z,17.70
2018-10-16T12:31:12.015Z,17.90
2018-10-16T12:33:40.931Z,17.10
2018-10-16T12:36:09.675Z,18.10
2018-10-16T13:02:55.952Z,18.70
2018-10-16T13:05:25.897Z,19.20
2018-10-16T13:07:54.828Z,19.80
2018-10-16T13:10:24.771Z,19.60
2018-10-16T13:13:12.327Z,19.40
2018-10-16T13:16:04.176Z,20.80
2018-10-16T13:21:45.848Z,21.50
2018-10-16T13:48:15.074Z,20.90
2018-10-16T13:50:50.887Z,21.00
2018-10-16T13:53:27.421Z,21.60
2018-10-16T13:56:03.350Z,22.00
2018-10-16T13:58:37.659Z,21.80
2018-10-16T14:01:13.701Z,22.60
2018-10-16T14:03:53.042Z,23.70
2018-10-16T14:09:53.467Z,23.30
2018-10-16T14:12:42.927Z,24.20
2018-10-16T14:15:19.173Z,23.60
2018-10-16T14:18:04.393Z,24.90
2018-10-16T14:20:46.637Z,24.30
2018-10-16T14:23:27.579Z,25.10
2018-10-16T14:26:06.909Z,25.20
2018-10-16T14:28:47.668Z,25.70
2018-10-16T14:34:38.360Z,26.40
2018-10-16T14:37:15.460Z,26.90
2018-10-16T14:39:48.007Z,27.30
2018-10-16T14:42:22.802Z,27.60
2018-10-16T14:45:03.546Z,28.60
2018-10-16T14:47:37.749Z,28.90
2018-10-16T14:50:20.603Z,29.40
2018-10-16T14:52:53.482Z,30.20
2018-10-16T14:55:34.413Z,30.90
2018-10-16T15:01:16.536Z,32.70
2018-10-16T15:03:51.236Z,33.80
2018-10-16T15:06:25.163Z,34.60
2018-10-16T15:08:58.537Z,35.10
2018-10-16T15:11:30.143Z,35.80
2018-10-16T15:13:58.842Z,36.30
2018-10-16T15:16:27.491Z,36.70
2018-10-16T15:18:56.017Z,37.30
2018-10-16T15:21:24.687Z,37.60
2018-10-16T15:23:53.785Z,37.50
2018-10-16T15:26:22.491Z,37.70
2018-10-16T15:28:51.195Z,38.00
2018-10-16T15:31:19.786Z,38.30
2018-10-16T15:33:48.534Z,38.60
2018-10-16T15:36:17.270Z,38.50
2018-10-16T15:38:45.732Z,39.10
2018-10-16T15:41:14.646Z,39.50
2018-10-16T15:43:43.230Z,40.40
2018-10-16T15:46:11.991Z,41.20
2018-10-16T15:48:40.591Z,42.20
2018-10-16T15:51:09.877Z,42.60
2018-10-16T15:53:38.558Z,42.70
2018-10-16T15:56:07.414Z,44.00
2018-10-16T15:58:52.058Z,44.20
2018-10-16T16:01:20.892Z,45.50
2018-10-16T16:03:49.625Z,46.60
2018-10-16T16:06:18.363Z,47.20
2018-10-16T16:08:46.966Z,48.10
2018-10-16T16:11:15.652Z,48.60
2018-10-16T16:13:44.220Z,49.20
2018-10-16T16:16:15.209Z,49.80
2018-10-16T16:18:44.439Z,50.20
2018-10-16T16:23:59.374Z,50.90
2018-10-16T16:26:27.994Z,51.20
2018-10-16T16:28:56.735Z,51.40
2018-10-16T16:31:42.022Z,51.90
2018-10-16T16:34:13.689Z,52.20
2018-10-16T16:36:42.389Z,52.50
2018-10-16T16:39:13.902Z,52.80
2018-10-16T16:41:43.290Z,53.20
2018-10-16T16:44:12.953Z,53.50
2018-10-16T17:00:34.520Z,54.30
2018-10-16T17:03:05.992Z,55.90
2018-10-16T17:05:37.265Z,56.30
2018-10-16T17:22:05.593Z,56.70
2018-10-16T17:24:48.631Z,58.40
2018-10-16T17:32:17.326Z,58.80
2018-10-16T17:34:46.274Z,59.60
2018-10-16T17:37:18.377Z,60.00
2018-10-16T17:39:48.769Z,61.40
2018-10-16T17:42:18.862Z,61.20
2018-10-16T17:44:48.324Z,61.80
2018-10-16T17:47:17.614Z,61.90
2018-10-16T17:49:46.356Z,62.40
2018-10-16T17:52:15.316Z,62.70
2018-10-16T17:54:45.111Z,63.70
2018-10-16T17:57:14.072Z,64.30
2018-10-16T17:59:46.173Z,64.90
2018-10-16T18:04:54.279Z,66.00
2018-10-16T18:07:24.139Z,66.60
2018-10-16T18:09:54.631Z,67.30
2018-10-16T18:12:23.349Z,67.90
2018-10-16T18:14:53.129Z,68.30
2018-10-16T18:17:22.687Z,68.90
2018-10-16T18:19:51.367Z,69.30
2018-10-16T18:22:20.624Z,70.00
2018-10-16T18:24:50.431Z,70.60
2018-10-16T18:27:26.726Z,71.20
2018-10-16T18:29:55.698Z,72.40
2018-10-16T18:32:25.380Z,72.70
2018-10-16T18:34:54.940Z,73.40
2018-10-16T18:37:23.662Z,74.10
2018-10-16T18:39:52.246Z,74.40
2018-10-16T18:42:21.279Z,75.20
2018-10-16T18:44:50.435Z,75.80
2018-10-16T18:47:19.121Z,76.50
2018-10-16T18:49:47.700Z,77.40
2018-10-16T18:52:17.309Z,78.20
2018-10-16T18:54:47.466Z,78.90
2018-10-16T18:57:16.195Z,79.70
2018-10-16T18:59:44.912Z,80.90
2018-10-16T19:02:13.543Z,81.80
2018-10-16T19:04:44.069Z,81.90
2018-10-16T19:07:13.510Z,82.90
2018-10-16T19:09:42.153Z,83.00
2018-10-16T19:12:10.877Z,83.60
2018-10-16T19:14:39.950Z,84.80
2018-10-16T19:17:08.686Z,85.90
2018-10-16T19:19:37.331Z,86.80
2018-10-16T19:22:06.597Z,87.80
2018-10-16T19:24:37.467Z,89.20
2018-10-16T19:27:07.670Z,90.30
2018-10-16T19:29:36.393Z,90.50
2018-10-16T19:32:05.543Z,90.50
2018-10-16T19:34:37.312Z,91.00
2018-10-16T19:37:05.965Z,91.30
2018-10-16T19:39:36.288Z,91.40
2018-10-16T19:42:05.129Z,91.60
2018-10-16T19:44:33.850Z,92.60
2018-10-16T19:47:02.487Z,94.30
2018-10-16T19:49:31.545Z,94.90
2018-10-16T19:52:04.617Z,94.40
2018-10-16T19:54:33.818Z,94.00
2018-10-16T19:57:03.167Z,94.20
2018-10-16T19:59:33.001Z,94.60
2018-10-16T20:02:01.739Z,95.00
2018-10-16T20:04:31.278Z,95.40
2018-10-16T20:06:59.892Z,95.30
2018-10-16T20:09:28.384Z,95.90
2018-10-16T20:11:57.765Z,96.60
2018-10-16T20:14:26.801Z,97.30
2018-10-16T20:17:04.895Z,96.70
2018-10-16T20:19:33.498Z,96.90
2018-10-16T20:22:02.229Z,97.40
2018-10-16T20:24:31.526Z,97.90
2018-10-16T20:27:01.172Z,98.30
2018-10-16T20:29:31.521Z,98.70
2018-10-16T20:32:01.070Z,98.80
2018-10-16T20:34:30.934Z,98.90
2018-10-16T20:36:59.630Z,99.10
2018-10-16T20:39:28.202Z,99.00
2018-10-16T20:42:01.762Z,99.40
2018-10-16T20:44:30.331Z,99.30
2018-10-16T20:47:00.136Z,99.30
2018-10-16T20:49:28.745Z,99.70
2018-10-16T20:51:58.864Z,99.90
2018-10-16T20:54:27.442Z,99.90
2018-10-16T20:56:57.763Z,99.90
2018-10-16T20:59:27.833Z,99.90
2018-10-16T21:01:58.148Z,99.90
2018-10-16T21:04:27.678Z,99.90
2018-10-16T21:06:59.847Z,99.90
2018-10-16T21:09:28.830Z,99.90
2018-10-16T21:11:59.468Z,99.90
2018-10-16T21:14:28.572Z,99.90
2018-10-16T21:17:00.399Z,99.90
2018-10-16T21:19:31.631Z,99.90
2018-10-16T21:22:02.027Z,99.90
2018-10-16T21:24:32.402Z,99.90
2018-10-16T21:27:06.374Z,99.90
2018-10-16T21:29:36.321Z,99.90
2018-10-16T21:32:06.647Z,99.90
2018-10-16T21:34:35.620Z,99.90
2018-10-16T21:37:06.512Z,99.90
2018-10-16T21:39:36.984Z,99.90
2018-10-16T21:42:09.466Z,99.90
2018-10-16T21:44:39.394Z,99.90
2018-10-16T21:47:09.103Z,99.90
2018-10-16T21:49:38.089Z,99.90
2018-10-16T21:52:07.897Z,99.90
2018-10-16T21:54:39.002Z,99.90
2018-10-16T21:57:08.391Z,99.90
2018-10-16T21:59:38.443Z,99.90
2018-10-16T22:02:12.392Z,99.90
2018-10-16T22:04:44.619Z,99.90
2018-10-16T22:07:16.430Z,99.90
2018-10-16T22:09:44.975Z,99.90
2018-10-16T22:12:13.621Z,99.90
2018-10-16T22:14:43.829Z,99.90
2018-10-16T22:17:12.441Z,99.90
2018-10-16T22:19:41.866Z,99.90
2018-10-16T22:22:11.809Z,99.90
2018-10-16T22:24:42.545Z,99.90
2018-10-16T22:27:12.164Z,99.90
2018-10-16T22:29:41.862Z,99.90
2018-10-16T22:32:10.549Z,99.90
2018-10-16T22:34:40.462Z,99.90
2018-10-16T22:37:13.832Z,99.90
2018-10-16T22:39:45.034Z,99.90
2018-10-16T22:42:14.727Z,99.90
2018-10-16T22:44:43.997Z,99.90
2018-10-16T22:47:15.820Z,99.90
2018-10-16T22:49:45.739Z,99.90
2018-10-16T22:52:15.957Z,99.90
2018-10-16T22:54:46.590Z,99.90
2018-10-16T22:57:17.633Z,99.90
2018-10-16T22:59:46.794Z,99.90
2018-10-16T23:02:17.154Z,99.90
2018-10-16T23:04:46.522Z,99.90
2018-10-16T23:07:17.169Z,99.90
2018-10-16T23:09:48.359Z,99.90
2018-10-16T23:12:18.965Z,99.90
2018-10-16T23:14:50.026Z,99.90
2018-10-16T23:17:19.448Z,99.90
2018-10-16T23:19:48.809Z,99.90
2018-10-16T23:22:18.973Z,99.90
2018-10-16T23:24:51.507Z,99.90
2018-10-16T23:27:21.390Z,99.90
2018-10-16T23:29:50.627Z,99.90
2018-10-16T23:32:20.706Z,99.90
2018-10-16T23:34:49.535Z,99.90
2018-10-16T23:37:18.851Z,99.90
2018-10-16T23:39:49.253Z,99.90
2018-10-16T23:42:19.651Z,99.90
2018-10-16T23:44:48.317Z,99.90
2018-10-16T23:47:18.410Z,99.90
2018-10-16T23:49:50.206Z,99.90
2018-10-16T23:52:19.591Z,99.90
2018-10-16T23:54:51.266Z,99.90
2018-10-16T23:57:23.383Z,99.90
2018-10-16T23:59:52.847Z,99.90
